Huvudsida
METAR-TAF:

METAR-TAF

Flygplatser :

Bingöl, Turkiet

latitud: 38-51-40N, longitud: 40-35-33E, höjd: 1063 m

Aktuellt väderrapport

Denna rapport gjordes för 1 timme och 29 minuter sedan, klockan 06:50 UTC
Vind 7 kt från nord, varierande mellan nordväst och nord/nordost
Temperatur 29°C
Fuktighet 27%
Tryck 1010 hPa
Sikt 10 km eller mer
Inga moln under 1 500 m eller inga cumulonimbus

METAR: LTCU 220650Z 35007KT 310V020 CAVOK 29/08 Q1010

Tid: 11:19 (08:19 UTC)

Väderprognos

Denna rapport gjordes för 3 timmar och 39 minuter sedan, klockan 04:40 UTC
Prognos gäller från 22 kl. 06 UTC till 22 kl. 15 UTC
Vind 7 kt från nord/nordväst
Sikt 10 km eller mer
Inga moln under 1 500 m eller inga cumulonimbus

TAF: LTCU 220440Z 2206/2215 33007KT CAVOK

Aktuella väderrapporter och prognoser från 4000 flygplatser (METAR- och TAF-rapporter).

De tillgängliga stationerna syns som gula och röda prickar på kartan.

För musen över prickarna för att se namnen på stationerna.

Klicka sedan för att få väderrapporter och prognoser.

För att ändra kartan: Klicka på de gröna knapparna med ett svart kors på för att zooma in; den gröna knappen med ett streck på för att zooma ut; eller på de gröna pilarna för angränsande kartor.


METAR-TAF: